Terminal Aerodrome Forecast
Issued by NWS Billings, MT

Home | Current Version | Previous Version | Text Only | Print | Product List | Glossary Off
Versions: 1 2 3 4 5 6 7 8 9 10 11 12 13 14 15 16 17

000
FTUS45 KBYZ 232153 AAA
TAFMLS
TAF AMD
KMLS 232153Z 2322/2418 33011G20KT 3SM -RASN BR OVC005
      TEMPO 2322/2402 3/4SM -SN BR
     FM240200 32011KT 5SM -SHRA SCT005 OVC025
     FM240600 32006KT P6SM VCFG SCT002
     FM241500 VRB05KT P6SM SCT250=

USA.gov is the U.S. government's official web portal to all federal, state and local government web resources and services.